createdAt,value
2018-06-12T00:04:52.881Z,79.30
2018-06-12T00:10:22.993Z,79.30
2018-06-12T00:15:53.351Z,79.50
2018-06-12T00:21:23.433Z,79.50
2018-06-12T00:26:53.639Z,79.40
2018-06-12T00:32:23.521Z,79.40
2018-06-12T00:37:53.635Z,79.20
2018-06-12T00:43:23.780Z,79.40
2018-06-12T00:48:53.691Z,79.50
2018-06-12T00:54:23.749Z,79.50
2018-06-12T00:59:53.581Z,79.50
2018-06-12T01:05:23.883Z,79.70
2018-06-12T01:10:53.743Z,79.60
2018-06-12T01:16:23.477Z,79.60
2018-06-12T01:21:53.495Z,80.00
2018-06-12T01:27:23.590Z,79.80
2018-06-12T01:32:53.645Z,79.90
2018-06-12T01:38:23.553Z,79.70
2018-06-12T01:43:53.654Z,79.70
2018-06-12T01:49:23.617Z,79.80
2018-06-12T01:54:53.758Z,79.80
2018-06-12T02:00:24.475Z,80.00
2018-06-12T02:05:55.058Z,79.80
2018-06-12T02:17:23.098Z,80.00
2018-06-12T02:22:59.017Z,80.10
2018-06-12T02:28:28.298Z,80.10
2018-06-12T02:33:57.985Z,80.20
2018-06-12T02:39:30.312Z,80.30
2018-06-12T02:45:00.322Z,80.20
2018-06-12T02:50:29.553Z,80.40
2018-06-12T02:55:59.853Z,81.20
2018-06-12T03:01:31.163Z,80.60
2018-06-12T03:07:00.584Z,80.70
2018-06-12T03:12:29.925Z,80.70
2018-06-12T03:17:59.213Z,80.70
2018-06-12T03:23:30.119Z,80.70
2018-06-12T03:29:01.406Z,80.90
2018-06-12T03:34:30.710Z,80.80
2018-06-12T03:39:59.955Z,80.80
2018-06-12T03:45:29.169Z,80.90
2018-06-12T03:50:59.187Z,80.90
2018-06-12T03:56:29.220Z,81.00
2018-06-12T04:01:58.458Z,80.80
2018-06-12T04:07:27.717Z,81.00
2018-06-12T04:12:57.171Z,80.90
2018-06-12T04:18:26.986Z,81.10
2018-06-12T04:23:57.714Z,81.10
2018-06-12T04:29:31.413Z,81.20
2018-06-12T04:35:00.706Z,80.90
2018-06-12T04:40:29.962Z,80.70
2018-06-12T04:46:08.383Z,80.60
2018-06-12T04:51:37.702Z,80.60
2018-06-12T04:57:07.002Z,80.30
2018-06-12T05:02:36.445Z,80.20
2018-06-12T05:08:05.693Z,80.80
2018-06-12T05:13:34.894Z,80.10
2018-06-12T05:19:04.267Z,79.80
2018-06-12T05:24:33.456Z,79.90
2018-06-12T05:30:03.188Z,79.70
2018-06-12T05:35:53.549Z,79.60
2018-06-12T05:41:33.861Z,79.80
2018-06-12T05:47:03.739Z,79.40
2018-06-12T05:52:33.009Z,79.40
2018-06-12T05:58:34.646Z,79.30
2018-06-12T06:04:03.896Z,79.40
2018-06-12T06:09:47.546Z,79.00
2018-06-12T06:15:29.132Z,79.00
2018-06-12T06:20:59.983Z,78.90
2018-06-12T06:32:31.535Z,78.70
2018-06-12T06:38:00.779Z,78.60
2018-06-12T06:43:29.997Z,78.60
2018-06-12T06:48:59.388Z,78.60
2018-06-12T06:54:28.598Z,78.00
2018-06-12T06:59:59.024Z,77.70
2018-06-12T07:05:33.000Z,77.50
2018-06-12T07:11:02.287Z,77.30
2018-06-12T07:16:32.352Z,76.80
2018-06-12T07:22:01.552Z,76.80
2018-06-12T07:27:30.792Z,76.60
2018-06-12T07:33:37.650Z,76.30
2018-06-12T07:44:48.339Z,75.40
2018-06-12T07:50:18.079Z,75.30
2018-06-12T07:55:47.737Z,75.10
2018-06-12T08:01:37.154Z,73.50
2018-06-12T08:07:06.764Z,72.60
2018-06-12T08:12:35.960Z,72.40
2018-06-12T08:18:05.362Z,72.20
2018-06-12T08:23:35.172Z,71.50
2018-06-12T08:29:04.376Z,71.10
2018-06-12T08:34:33.685Z,71.10
2018-06-12T08:40:02.899Z,71.10
2018-06-12T08:45:32.135Z,70.80
2018-06-12T08:51:01.366Z,70.90
2018-06-12T08:56:30.550Z,69.20
2018-06-12T09:01:59.787Z,68.80
2018-06-12T09:07:29.011Z,68.00
2018-06-12T09:12:58.293Z,67.80
2018-06-12T09:18:28.823Z,67.80
2018-06-12T09:23:58.089Z,67.20
2018-06-12T09:29:27.525Z,66.10
2018-06-12T09:34:56.869Z,65.70
2018-06-12T09:40:30.856Z,65.50
2018-06-12T09:46:00.114Z,65.10
2018-06-12T09:51:30.104Z,65.10
2018-06-12T09:56:59.374Z,64.00
2018-06-12T10:02:28.602Z,63.90
2018-06-12T10:07:57.885Z,63.80
2018-06-12T10:13:52.079Z,63.90
2018-06-12T10:19:21.599Z,63.90
2018-06-12T10:24:57.634Z,63.70
2018-06-12T10:30:26.845Z,62.90
2018-06-12T10:35:56.091Z,62.60
2018-06-12T10:41:25.464Z,62.10
2018-06-12T10:46:54.808Z,61.20
2018-06-12T10:52:25.912Z,61.90
2018-06-12T10:58:18.933Z,61.50
2018-06-12T11:03:50.830Z,61.50
2018-06-12T11:09:24.630Z,61.80
2018-06-12T11:14:57.121Z,62.30
2018-06-12T11:20:27.023Z,63.20
2018-06-12T11:25:56.446Z,62.50
2018-06-12T11:31:26.159Z,62.70
2018-06-12T11:36:55.359Z,62.30
2018-06-12T11:42:25.364Z,63.50
2018-06-12T11:47:54.955Z,62.30
2018-06-12T11:53:27.687Z,63.00
2018-06-12T11:59:01.074Z,60.70
2018-06-12T12:04:30.459Z,59.70
2018-06-12T12:09:59.694Z,58.90
2018-06-12T12:15:28.921Z,58.70
2018-06-12T12:21:01.799Z,58.90
2018-06-12T12:26:34.360Z,57.30
2018-06-12T12:32:04.425Z,57.00
2018-06-12T12:37:33.689Z,56.80
2018-06-12T12:43:03.732Z,58.20
2018-06-12T12:48:32.967Z,56.90
2018-06-12T12:54:02.207Z,56.70
2018-06-12T12:59:31.407Z,56.40
2018-06-12T13:05:00.989Z,56.00
2018-06-12T13:16:34.895Z,54.90
2018-06-12T13:22:04.274Z,54.50
2018-06-12T13:27:33.584Z,54.70
2018-06-12T13:33:02.855Z,54.50
2018-06-12T13:38:32.066Z,54.00
2018-06-12T13:44:01.390Z,54.40
2018-06-12T13:49:30.664Z,53.70
2018-06-12T13:55:00.267Z,54.90
2018-06-12T14:00:29.574Z,54.60
2018-06-12T14:05:58.796Z,54.00
2018-06-12T14:11:28.181Z,55.30
2018-06-12T14:16:57.415Z,55.30
2018-06-12T14:22:30.869Z,54.80
2018-06-12T14:28:00.123Z,55.20
2018-06-12T14:33:30.763Z,55.80
2018-06-12T14:38:59.977Z,56.50
2018-06-12T14:44:33.394Z,57.00
2018-06-12T14:50:23.901Z,59.00
2018-06-12T14:55:56.698Z,60.50
2018-06-12T15:01:26.306Z,61.90
2018-06-12T15:07:04.464Z,63.80
2018-06-12T15:12:33.706Z,64.90
2018-06-12T15:18:02.995Z,66.20
2018-06-12T15:23:32.299Z,68.20
2018-06-12T15:29:01.620Z,67.40
2018-06-12T15:34:30.864Z,68.20
2018-06-12T15:40:00.120Z,69.10
2018-06-12T15:50:58.416Z,73.00
2018-06-12T15:56:49.906Z,73.40
2018-06-12T16:02:22.713Z,74.40
2018-06-12T16:07:54.263Z,75.60
2018-06-12T16:18:57.407Z,77.00
2018-06-12T16:24:29.987Z,77.60
2018-06-12T16:29:59.277Z,77.80
2018-06-12T16:35:28.622Z,78.10
2018-06-12T16:40:57.995Z,78.30
2018-06-12T16:51:56.948Z,78.60
2018-06-12T16:57:26.311Z,78.70
2018-06-12T17:02:57.699Z,79.00
2018-06-12T17:08:27.440Z,79.70
2018-06-12T17:13:59.074Z,79.70
2018-06-12T17:19:31.149Z,79.90
2018-06-12T17:25:01.340Z,80.70
2018-06-12T17:30:31.907Z,81.10
2018-06-12T17:36:01.303Z,81.40
2018-06-12T17:41:30.574Z,82.10
2018-06-12T17:46:59.969Z,82.20
2018-06-12T17:52:30.544Z,82.80
2018-06-12T17:58:03.713Z,83.20
2018-06-12T18:03:36.836Z,83.30
2018-06-12T18:09:08.326Z,83.40
2018-06-12T18:14:40.882Z,83.30
2018-06-12T18:20:20.884Z,83.70
2018-06-12T18:25:50.601Z,83.80
2018-06-12T18:31:20.001Z,83.80
2018-06-12T18:36:49.861Z,84.00
2018-06-12T18:42:19.640Z,84.00
2018-06-12T18:47:50.090Z,83.90
2018-06-12T18:53:19.655Z,84.20
2018-06-12T18:58:50.760Z,84.20
2018-06-12T19:04:21.544Z,84.40
2018-06-12T19:09:54.696Z,84.50
2018-06-12T19:15:25.619Z,84.40
2018-06-12T19:20:56.614Z,84.40
2018-06-12T19:26:27.344Z,84.40
2018-06-12T19:31:57.367Z,84.70
2018-06-12T19:37:26.792Z,84.70
2018-06-12T19:42:56.179Z,85.10
2018-06-12T19:48:25.900Z,85.10
2018-06-12T19:53:59.032Z,85.10
2018-06-12T19:59:28.452Z,85.50
2018-06-12T20:04:58.179Z,85.50
2018-06-12T20:10:28.365Z,85.40
2018-06-12T20:15:59.491Z,85.70
2018-06-12T20:21:30.749Z,85.50
2018-06-12T20:27:01.017Z,85.50
2018-06-12T20:32:30.473Z,85.60
2018-06-12T20:37:59.883Z,85.90
2018-06-12T20:43:46.482Z,86.10
2018-06-12T20:49:17.836Z,86.00
2018-06-12T20:54:50.612Z,85.90
2018-06-12T21:00:22.586Z,86.10
2018-06-12T21:05:52.289Z,86.10
2018-06-12T21:11:22.016Z,86.20
2018-06-12T21:16:51.569Z,86.50
2018-06-12T21:22:21.092Z,86.50
2018-06-12T21:27:51.559Z,86.50
2018-06-12T21:33:21.449Z,86.60
2018-06-12T21:38:51.319Z,86.70
2018-06-12T21:44:20.735Z,86.60
2018-06-12T21:49:50.149Z,88.30
2018-06-12T21:55:23.407Z,87.80
2018-06-12T22:00:52.870Z,87.80
2018-06-12T22:06:23.285Z,87.40
2018-06-12T22:11:52.901Z,87.50
2018-06-12T22:17:22.340Z,87.70
2018-06-12T22:22:52.137Z,87.70
2018-06-12T22:28:21.815Z,87.70
2018-06-12T22:33:51.192Z,87.80
2018-06-12T22:39:20.498Z,87.90
2018-06-12T22:44:49.691Z,87.70
2018-06-12T22:50:19.101Z,87.80
2018-06-12T22:55:48.483Z,88.00
2018-06-12T23:01:17.755Z,87.70
2018-06-12T23:06:47.023Z,87.90
2018-06-12T23:12:16.444Z,88.10
2018-06-12T23:17:47.136Z,88.20
2018-06-12T23:23:16.545Z,88.00
2018-06-12T23:28:46.622Z,88.00
2018-06-12T23:34:16.152Z,88.00
2018-06-12T23:39:45.842Z,88.10
2018-06-12T23:45:15.716Z,88.00
2018-06-12T23:50:45.512Z,88.10
2018-06-12T23:56:17.084Z,88.30
